Meteo Giornale » Osservazioni meteo Stati Uniti (USA) » Los Angeles

ore: 02:53 - Osservazioni Meteo Los Angeles
Lat. 33° 56' N Lon. 118° 23' W Alt. 38 metri s.l.m.

poco_nuvoloso America/Los_Angeles

21 °C

Poco Nuvoloso

Temp. 24 Ore

18 °C

26 °C

Ovest/Sud-Ovest

7.4 Km/h

Dew point 17 °C

Umidità 77 %

Visibilità  10 Km

Il sole sorge alle ore 06:09

Il sole tramonta alle ore 19:49

Data e Ora Cielo e Fenomeni T °C DP °C Um. % Pres. hPa Vis. km Vento km/h
Oggi h: 02:53 poco_nuvoloso Poco Nuvoloso 21 17 77 1012 10 O/SO 7.4
Oggi h: 01:53 nuvoloso Nuvoloso 22 17 73 1012 10 N 5.5
Oggi h: 00:53 molto_nuvoloso Molto Nuvoloso 21 17 77 1012 10 N 5.5
Ieri h: 23:53 molto_nuvoloso Molto Nuvoloso 22 17 73 1013 10 S 7.4
Ieri h: 22:53 molto_nuvoloso Molto Nuvoloso 22 16 68 1013 10 N 5.5
Ieri h: 21:53 nuvoloso Nuvoloso 22 16 68 1012 10 O/SO 7.4
Ieri h: 20:53 nuvoloso Nuvoloso 22 14 60 1012 10 O/SO 11.1
Ieri h: 19:53 poco_nuvoloso Poco Nuvoloso 23 16 64 1012 10 SO 13
Ieri h: 18:53 poco_nuvoloso Poco Nuvoloso 24 15 57 1011 10 O/SO 14.8
Ieri h: 17:53 nuvoloso Nuvoloso 24 16 60 1011 10 SO 18.5
Ieri h: 16:53 nuvoloso Nuvoloso 25 15 53 1011 10 O 25.9
Ieri h: 15:53 nuvoloso Nuvoloso 24 17 64 1012 10 O/SO 25.9
Ieri h: 14:53 nuvoloso Nuvoloso 26 15 50 1012 10 O 27.8
Ieri h: 13:53 nuvoloso Nuvoloso 26 15 50 1012 10 O 24
Ieri h: 12:53 nuvoloso Nuvoloso 26 16 54 1012 10 O/SO 18.5
Ieri h: 11:53 nuvoloso Nuvoloso 26 16 54 1013 10 O/SO 16.7
Ieri h: 10:53 nuvoloso Nuvoloso 26 16 54 1013 10 O 18.5
Ieri h: 09:53 poco_nuvoloso Poco Nuvoloso 26 16 54 1013 10 N 5.5
Ieri h: 08:53 poco_nuvoloso Poco Nuvoloso 22 16 68 1012 10 O/SO 7.4
Ieri h: 07:53 poco_nuvoloso Poco Nuvoloso 21 16 73 1012 10 N 5.5
Ieri h: 06:53 poco_nuvoloso Poco Nuvoloso 19 16 82 1012 14 N 0
Ieri h: 05:53 poco_nuvoloso Poco Nuvoloso 18 16 88 1011 10 N 5.5
Ieri h: 04:53 sereno Sereno 18 15 82 1011 10 O 9.3
Ieri h: 03:53 sereno Sereno 18 15 82 1011 10 N 5.5